sensor_id;sensor_type;location;lat;lon;timestamp;pressure;altitude;pressure_sealevel;temperature;humidity
2192;BME280;1102;49.718;11.902;2022-11-21T00:00:44;95159.88;;;1.15;100.00
2192;BME280;1102;49.718;11.902;2022-11-21T00:03:12;95159.28;;;1.18;100.00
2192;BME280;1102;49.718;11.902;2022-11-21T00:05:40;95145.81;;;1.16;100.00
2192;BME280;1102;49.718;11.902;2022-11-21T00:08:08;95137.75;;;1.04;100.00
2192;BME280;1102;49.718;11.902;2022-11-21T00:10:37;95125.16;;;0.97;100.00
2192;BME280;1102;49.718;11.902;2022-11-21T00:13:05;95143.97;;;1.16;100.00
2192;BME280;1102;49.718;11.902;2022-11-21T00:15:32;95143.56;;;1.23;100.00
2192;BME280;1102;49.718;11.902;2022-11-21T00:18:01;95118.47;;;1.05;100.00
2192;BME280;1102;49.718;11.902;2022-11-21T00:20:28;95136.41;;;1.29;100.00
2192;BME280;1102;49.718;11.902;2022-11-21T00:22:55;95112.56;;;1.13;100.00
2192;BME280;1102;49.718;11.902;2022-11-21T00:25:22;95143.06;;;1.35;100.00
2192;BME280;1102;49.718;11.902;2022-11-21T00:27:49;95130.31;;;1.33;100.00
2192;BME280;1102;49.718;11.902;2022-11-21T00:30:17;95122.31;;;1.30;100.00
2192;BME280;1102;49.718;11.902;2022-11-21T00:32:44;95131.31;;;1.46;100.00
2192;BME280;1102;49.718;11.902;2022-11-21T00:35:11;95109.47;;;1.33;100.00
2192;BME280;1102;49.718;11.902;2022-11-21T00:37:38;95094.91;;;1.32;100.00
2192;BME280;1102;49.718;11.902;2022-11-21T00:40:05;95115.88;;;1.50;100.00
2192;BME280;1102;49.718;11.902;2022-11-21T00:42:32;95098.22;;;1.46;100.00
2192;BME280;1102;49.718;11.902;2022-11-21T00:44:58;95059.63;;;1.17;100.00
2192;BME280;1102;49.718;11.902;2022-11-21T00:50:12;95115.78;;;1.63;100.00
2192;BME280;1102;49.718;11.902;2022-11-21T00:52:39;95063.75;;;1.41;100.00
2192;BME280;1102;49.718;11.902;2022-11-21T00:55:06;95041.88;;;1.19;100.00
2192;BME280;1102;49.718;11.902;2022-11-21T00:57:33;95088.00;;;1.50;100.00
2192;BME280;1102;49.718;11.902;2022-11-21T00:59:59;95075.59;;;1.47;100.00
2192;BME280;1102;49.718;11.902;2022-11-21T01:02:26;95087.03;;;1.46;100.00
2192;BME280;1102;49.718;11.902;2022-11-21T01:04:52;95086.94;;;1.51;100.00
2192;BME280;1102;49.718;11.902;2022-11-21T01:07:19;95098.34;;;1.64;100.00
2192;BME280;1102;49.718;11.902;2022-11-21T01:09:46;95083.41;;;1.56;100.00
2192;BME280;1102;49.718;11.902;2022-11-21T01:12:13;95107.13;;;1.76;100.00
2192;BME280;1102;49.718;11.902;2022-11-21T01:14:40;95107.13;;;1.76;100.00
2192;BME280;1102;49.718;11.902;2022-11-21T01:17:06;95090.97;;;1.66;100.00
2192;BME280;1102;49.718;11.902;2022-11-21T01:19:34;95118.63;;;1.84;100.00
2192;BME280;1102;49.718;11.902;2022-11-21T01:22:01;95101.31;;;1.80;100.00
2192;BME280;1102;49.718;11.902;2022-11-21T01:24:28;95092.06;;;1.73;100.00
2192;BME280;1102;49.718;11.902;2022-11-21T01:26:55;95104.53;;;1.85;100.00
2192;BME280;1102;49.718;11.902;2022-11-21T01:29:21;95083.31;;;1.69;100.00
2192;BME280;1102;49.718;11.902;2022-11-21T01:31:48;95095.19;;;1.84;100.00
2192;BME280;1102;49.718;11.902;2022-11-21T01:34:15;95088.75;;;1.82;100.00
2192;BME280;1102;49.718;11.902;2022-11-21T01:36:42;95104.75;;;1.97;100.00
2192;BME280;1102;49.718;11.902;2022-11-21T01:39:09;95072.66;;;1.80;100.00
2192;BME280;1102;49.718;11.902;2022-11-21T01:41:39;95088.53;;;2.00;100.00
2192;BME280;1102;49.718;11.902;2022-11-21T01:44:14;95086.53;;;2.06;100.00
2192;BME280;1102;49.718;11.902;2022-11-21T01:46:42;95059.94;;;1.87;100.00
2192;BME280;1102;49.718;11.902;2022-11-21T01:49:12;95069.50;;;2.00;100.00
2192;BME280;1102;49.718;11.902;2022-11-21T01:52:04;95092.41;;;2.20;100.00
2192;BME280;1102;49.718;11.902;2022-11-21T01:54:40;95101.00;;;2.21;100.00
2192;BME280;1102;49.718;11.902;2022-11-21T01:57:44;95088.56;;;2.18;100.00
2192;BME280;1102;49.718;11.902;2022-11-21T02:00:07;95088.88;;;2.25;100.00
2192;BME280;1102;49.718;11.902;2022-11-21T02:02:39;95097.78;;;2.24;100.00
2192;BME280;1102;49.718;11.902;2022-11-21T02:05:11;95082.72;;;2.12;100.00
2192;BME280;1102;49.718;11.902;2022-11-21T02:07:43;95091.66;;;2.28;100.00
2192;BME280;1102;49.718;11.902;2022-11-21T02:10:12;95097.00;;;2.23;100.00
2192;BME280;1102;49.718;11.902;2022-11-21T02:12:43;95089.06;;;2.28;100.00
2192;BME280;1102;49.718;11.902;2022-11-21T02:15:13;95075.38;;;2.14;100.00
2192;BME280;1102;49.718;11.902;2022-11-21T02:17:39;95089.53;;;2.30;100.00
2192;BME280;1102;49.718;11.902;2022-11-21T02:20:10;95073.53;;;2.23;100.00
2192;BME280;1102;49.718;11.902;2022-11-21T02:25:40;95079.84;;;2.40;100.00
2192;BME280;1102;49.718;11.902;2022-11-21T02:28:12;95075.91;;;2.42;100.00
2192;BME280;1102;49.718;11.902;2022-11-21T02:30:41;95056.84;;;2.33;100.00
2192;BME280;1102;49.718;11.902;2022-11-21T02:33:09;95070.38;;;2.44;100.00
2192;BME280;1102;49.718;11.902;2022-11-21T02:35:36;95059.78;;;2.31;100.00
2192;BME280;1102;49.718;11.902;2022-11-21T02:38:15;95071.00;;;2.41;100.00
2192;BME280;1102;49.718;11.902;2022-11-21T02:40:49;95078.50;;;2.42;100.00
2192;BME280;1102;49.718;11.902;2022-11-21T02:43:27;95062.69;;;2.38;100.00
2192;BME280;1102;49.718;11.902;2022-11-21T02:45:55;95039.69;;;2.32;100.00
2192;BME280;1102;49.718;11.902;2022-11-21T02:48:21;95058.88;;;2.45;100.00
2192;BME280;1102;49.718;11.902;2022-11-21T02:50:48;95060.25;;;2.42;100.00
2192;BME280;1102;49.718;11.902;2022-11-21T02:53:17;95031.06;;;2.23;100.00
2192;BME280;1102;49.718;11.902;2022-11-21T02:55:44;95068.53;;;2.44;100.00
2192;BME280;1102;49.718;11.902;2022-11-21T02:58:11;95064.38;;;2.43;100.00
2192;BME280;1102;49.718;11.902;2022-11-21T03:00:39;95064.84;;;2.45;100.00
2192;BME280;1102;49.718;11.902;2022-11-21T03:03:07;95032.47;;;2.29;100.00
2192;BME280;1102;49.718;11.902;2022-11-21T03:05:34;95043.81;;;2.33;100.00
2192;BME280;1102;49.718;11.902;2022-11-21T03:08:02;95027.06;;;2.25;100.00
2192;BME280;1102;49.718;11.902;2022-11-21T03:10:28;95063.47;;;2.48;100.00
2192;BME280;1102;49.718;11.902;2022-11-21T03:12:55;95017.88;;;2.19;100.00
2192;BME280;1102;49.718;11.902;2022-11-21T03:15:32;95064.84;;;2.45;100.00
2192;BME280;1102;49.718;11.902;2022-11-21T03:18:00;95062.09;;;2.50;100.00
2192;BME280;1102;49.718;11.902;2022-11-21T03:20:29;95026.47;;;2.37;100.00
2192;BME280;1102;49.718;11.902;2022-11-21T03:22:56;95067.16;;;2.55;100.00
2192;BME280;1102;49.718;11.902;2022-11-21T03:25:23;95063.94;;;2.50;100.00
2192;BME280;1102;49.718;11.902;2022-11-21T03:27:51;95067.47;;;2.54;100.00
2192;BME280;1102;49.718;11.902;2022-11-21T03:30:23;95073.47;;;2.54;100.00
2192;BME280;1102;49.718;11.902;2022-11-21T03:32:50;95068.53;;;2.53;100.00
2192;BME280;1102;49.718;11.902;2022-11-21T03:35:20;95041.81;;;2.38;100.00
2192;BME280;1102;49.718;11.902;2022-11-21T03:37:47;95069.47;;;2.57;100.00
2192;BME280;1102;49.718;11.902;2022-11-21T03:40:14;95062.09;;;2.59;100.00
2192;BME280;1102;49.718;11.902;2022-11-21T03:42:40;95038.78;;;2.54;100.00
2192;BME280;1102;49.718;11.902;2022-11-21T03:45:07;95015.13;;;2.33;100.00
2192;BME280;1102;49.718;11.902;2022-11-21T03:47:34;95054.09;;;2.64;100.00
2192;BME280;1102;49.718;11.902;2022-11-21T03:50:01;95054.72;;;2.61;100.00
2192;BME280;1102;49.718;11.902;2022-11-21T03:52:27;95048.59;;;2.57;100.00
2192;BME280;1102;49.718;11.902;2022-11-21T03:54:54;95063.34;;;2.70;100.00
2192;BME280;1102;49.718;11.902;2022-11-21T03:57:21;95029.88;;;2.55;100.00
2192;BME280;1102;49.718;11.902;2022-11-21T03:59:47;95024.78;;;2.50;100.00
2192;BME280;1102;49.718;11.902;2022-11-21T04:02:14;94977.72;;;2.29;100.00
2192;BME280;1102;49.718;11.902;2022-11-21T04:04:40;95037.25;;;2.70;100.00
2192;BME280;1102;49.718;11.902;2022-11-21T04:07:07;95027.09;;;2.60;100.00
2192;BME280;1102;49.718;11.902;2022-11-21T04:09:34;95037.84;;;2.67;100.00
2192;BME280;1102;49.718;11.902;2022-11-21T04:12:00;95040.00;;;2.65;100.00
2192;BME280;1102;49.718;11.902;2022-11-21T04:14:33;95009.00;;;2.37;100.00
2192;BME280;1102;49.718;11.902;2022-11-21T04:16:59;94996.13;;;2.32;100.00
2192;BME280;1102;49.718;11.902;2022-11-21T04:19:26;95034.47;;;2.58;100.00
2192;BME280;1102;49.718;11.902;2022-11-21T04:21:52;95019.75;;;2.45;100.00
2192;BME280;1102;49.718;11.902;2022-11-21T04:24:19;95030.47;;;2.52;100.00
2192;BME280;1102;49.718;11.902;2022-11-21T04:26:46;95019.13;;;2.48;100.00
2192;BME280;1102;49.718;11.902;2022-11-21T04:29:12;94996.13;;;2.32;100.00
2192;BME280;1102;49.718;11.902;2022-11-21T04:31:39;95008.53;;;2.35;100.00
2192;BME280;1102;49.718;11.902;2022-11-21T04:34:05;95001.47;;;2.36;100.00
2192;BME280;1102;49.718;11.902;2022-11-21T04:36:32;94997.19;;;2.31;100.00
2192;BME280;1102;49.718;11.902;2022-11-21T04:38:59;94976.47;;;2.18;100.00
2192;BME280;1102;49.718;11.902;2022-11-21T04:41:25;95012.69;;;2.45;100.00
2192;BME280;1102;49.718;11.902;2022-11-21T04:43:52;95030.66;;;2.55;100.00
2192;BME280;1102;49.718;11.902;2022-11-21T04:46:18;95003.63;;;2.43;100.00
2192;BME280;1102;49.718;11.902;2022-11-21T04:48:45;94986.47;;;2.42;100.00
2192;BME280;1102;49.718;11.902;2022-11-21T04:51:12;94989.50;;;2.35;100.00
2192;BME280;1102;49.718;11.902;2022-11-21T04:53:38;95012.22;;;2.52;100.00
2192;BME280;1102;49.718;11.902;2022-11-21T04:56:09;95018.22;;;2.61;100.00
2192;BME280;1102;49.718;11.902;2022-11-21T04:58:35;95009.47;;;2.57;100.00
2192;BME280;1102;49.718;11.902;2022-11-21T05:01:06;95017.44;;;2.60;100.00
2192;BME280;1102;49.718;11.902;2022-11-21T05:03:34;94984.94;;;2.41;100.00
2192;BME280;1102;49.718;11.902;2022-11-21T05:06:01;94972.19;;;2.30;100.00
2192;BME280;1102;49.718;11.902;2022-11-21T05:08:28;94969.56;;;2.30;100.00
2192;BME280;1102;49.718;11.902;2022-11-21T05:10:55;94998.28;;;2.56;100.00
2192;BME280;1102;49.718;11.902;2022-11-21T05:13:40;94985.22;;;2.48;100.00
2192;BME280;1102;49.718;11.902;2022-11-21T05:16:06;94985.53;;;2.46;100.00
2192;BME280;1102;49.718;11.902;2022-11-21T05:18:33;94997.50;;;2.56;100.00
2192;BME280;1102;49.718;11.902;2022-11-21T05:21:01;94998.56;;;2.55;100.00
2192;BME280;1102;49.718;11.902;2022-11-21T05:23:28;94949.94;;;2.16;100.00
2192;BME280;1102;49.718;11.902;2022-11-21T05:25:55;94991.34;;;2.52;100.00
2192;BME280;1102;49.718;11.902;2022-11-21T05:28:21;94980.16;;;2.34;100.00
2192;BME280;1102;49.718;11.902;2022-11-21T05:30:48;95005.31;;;2.47;100.00
2192;BME280;1102;49.718;11.902;2022-11-21T05:33:15;94997.34;;;2.44;100.00
2192;BME280;1102;49.718;11.902;2022-11-21T05:35:41;94993.19;;;2.34;100.00
2192;BME280;1102;49.718;11.902;2022-11-21T05:38:09;95003.78;;;2.37;100.00
2192;BME280;1102;49.718;11.902;2022-11-21T05:40:36;94961.28;;;2.11;100.00
2192;BME280;1102;49.718;11.902;2022-11-21T05:43:02;95007.16;;;2.38;100.00
2192;BME280;1102;49.718;11.902;2022-11-21T05:45:48;94995.34;;;2.32;100.00
2192;BME280;1102;49.718;11.902;2022-11-21T05:48:16;94963.72;;;2.07;100.00
2192;BME280;1102;49.718;11.902;2022-11-21T05:50:46;94989.97;;;2.20;100.00
2192;BME280;1102;49.718;11.902;2022-11-21T05:53:14;94995.03;;;2.25;100.00
2192;BME280;1102;49.718;11.902;2022-11-21T05:55:41;95003.16;;;2.23;100.00
2192;BME280;1102;49.718;11.902;2022-11-21T05:58:08;94964.66;;;2.03;100.00
2192;BME280;1102;49.718;11.902;2022-11-21T06:00:36;94896.06;;;1.59;100.00
2192;BME280;1102;49.718;11.902;2022-11-21T06:03:04;94998.41;;;2.34;100.00
2192;BME280;1102;49.718;11.902;2022-11-21T06:05:50;95002.41;;;2.31;100.00
2192;BME280;1102;49.718;11.902;2022-11-21T06:08:17;94972.16;;;2.13;100.00
2192;BME280;1102;49.718;11.902;2022-11-21T06:10:44;94956.97;;;2.06;100.00
2192;BME280;1102;49.718;11.902;2022-11-21T06:13:11;94975.09;;;2.20;100.00
2192;BME280;1102;49.718;11.902;2022-11-21T06:18:17;94974.16;;;2.25;100.00
2192;BME280;1102;49.718;11.902;2022-11-21T06:20:44;94932.59;;;1.94;100.00
2192;BME280;1102;49.718;11.902;2022-11-21T06:23:11;94997.97;;;2.41;100.00
2192;BME280;1102;49.718;11.902;2022-11-21T06:25:38;94988.75;;;2.34;100.00
2192;BME280;1102;49.718;11.902;2022-11-21T06:28:05;95001.50;;;2.45;100.00
2192;BME280;1102;49.718;11.902;2022-11-21T06:30:32;94999.34;;;2.47;100.00
2192;BME280;1102;49.718;11.902;2022-11-21T06:32:59;95009.16;;;2.50;100.00
2192;BME280;1102;49.718;11.902;2022-11-21T06:35:25;94994.75;;;2.44;100.00
2192;BME280;1102;49.718;11.902;2022-11-21T06:37:52;94992.88;;;2.35;100.00
2192;BME280;1102;49.718;11.902;2022-11-21T06:40:19;95013.16;;;2.56;100.00
2192;BME280;1102;49.718;11.902;2022-11-21T06:42:45;94969.09;;;2.20;100.00
2192;BME280;1102;49.718;11.902;2022-11-21T06:45:12;95008.41;;;2.41;100.00
2192;BME280;1102;49.718;11.902;2022-11-21T06:47:39;95038.16;;;2.57;100.00
2192;BME280;1102;49.718;11.902;2022-11-21T06:50:06;94990.59;;;2.34;100.00
2192;BME280;1102;49.718;11.902;2022-11-21T06:52:33;95014.38;;;2.50;100.00
2192;BME280;1102;49.718;11.902;2022-11-21T06:55:00;95018.69;;;2.54;100.00
2192;BME280;1102;49.718;11.902;2022-11-21T06:57:27;95003.78;;;2.37;100.00
2192;BME280;1102;49.718;11.902;2022-11-21T06:59:54;95021.28;;;2.46;100.00
2192;BME280;1102;49.718;11.902;2022-11-21T07:02:20;95047.81;;;2.65;100.00
2192;BME280;1102;49.718;11.902;2022-11-21T07:04:47;95042.91;;;2.63;100.00
2192;BME280;1102;49.718;11.902;2022-11-21T07:07:13;95044.28;;;2.61;100.00
2192;BME280;1102;49.718;11.902;2022-11-21T07:09:40;95033.09;;;2.60;100.00
2192;BME280;1102;49.718;11.902;2022-11-21T07:12:10;95024.34;;;2.48;100.00
2192;BME280;1102;49.718;11.902;2022-11-21T07:14:55;95049.19;;;2.62;100.00
2192;BME280;1102;49.718;11.902;2022-11-21T07:17:21;95039.69;;;2.58;100.00
2192;BME280;1102;49.718;11.902;2022-11-21T07:19:48;95024.34;;;2.48;100.00
2192;BME280;1102;49.718;11.902;2022-11-21T07:22:15;95030.97;;;2.54;100.00
2192;BME280;1102;49.718;11.902;2022-11-21T07:24:41;95046.13;;;2.60;100.00
2192;BME280;1102;49.718;11.902;2022-11-21T07:27:08;94978.00;;;2.19;100.00
2192;BME280;1102;49.718;11.902;2022-11-21T07:29:34;95047.06;;;2.64;100.00
2192;BME280;1102;49.718;11.902;2022-11-21T07:32:01;95027.56;;;2.53;100.00
2192;BME280;1102;49.718;11.902;2022-11-21T07:34:28;95015.44;;;2.31;100.00
2192;BME280;1102;49.718;11.902;2022-11-21T07:36:54;95071.63;;;2.72;100.00
2192;BME280;1102;49.718;11.902;2022-11-21T07:39:21;95051.50;;;2.55;100.00
2192;BME280;1102;49.718;11.902;2022-11-21T07:41:47;95067.78;;;2.61;100.00
2192;BME280;1102;49.718;11.902;2022-11-21T07:44:14;95068.69;;;2.56;100.00
2192;BME280;1102;49.718;11.902;2022-11-21T07:46:40;95055.16;;;2.37;100.00
2192;BME280;1102;49.718;11.902;2022-11-21T07:49:07;95066.69;;;2.45;100.00
2192;BME280;1102;49.718;11.902;2022-11-21T07:51:34;95070.50;;;2.38;100.00
2192;BME280;1102;49.718;11.902;2022-11-21T07:54:00;95050.53;;;2.17;100.00
2192;BME280;1102;49.718;11.902;2022-11-21T07:56:27;95054.06;;;2.21;100.00
2192;BME280;1102;49.718;11.902;2022-11-21T07:58:54;95056.09;;;2.32;100.00
2192;BME280;1102;49.718;11.902;2022-11-21T08:01:20;95043.22;;;2.45;100.00
2192;BME280;1102;49.718;11.902;2022-11-21T08:03:47;95025.53;;;2.24;100.00
2192;BME280;1102;49.718;11.902;2022-11-21T08:06:14;95063.03;;;2.54;100.00
2192;BME280;1102;49.718;11.902;2022-11-21T08:08:40;95055.78;;;2.51;100.00
2192;BME280;1102;49.718;11.902;2022-11-21T08:11:07;95067.94;;;2.56;100.00
2192;BME280;1102;49.718;11.902;2022-11-21T08:13:34;95078.38;;;2.73;100.00
2192;BME280;1102;49.718;11.902;2022-11-21T08:16:02;95067.94;;;2.56;100.00
2192;BME280;1102;49.718;11.902;2022-11-21T08:18:29;95077.47;;;2.69;100.00
2192;BME280;1102;49.718;11.902;2022-11-21T08:20:56;95051.34;;;2.43;100.00
2192;BME280;1102;49.718;11.902;2022-11-21T08:23:22;95086.50;;;2.63;100.00
2192;BME280;1102;49.718;11.902;2022-11-21T08:25:49;95000.56;;;2.15;100.00
2192;BME280;1102;49.718;11.902;2022-11-21T08:28:17;95103.88;;;2.85;100.00
2192;BME280;1102;49.718;11.902;2022-11-21T08:30:43;95095.13;;;2.81;100.00
2192;BME280;1102;49.718;11.902;2022-11-21T08:33:10;95115.53;;;2.96;100.00
2192;BME280;1102;49.718;11.902;2022-11-21T08:35:37;95078.69;;;2.72;100.00
2192;BME280;1102;49.718;11.902;2022-11-21T08:38:04;95119.81;;;3.01;100.00
2192;BME280;1102;49.718;11.902;2022-11-21T08:40:32;95122.59;;;3.04;100.00
2192;BME280;1102;49.718;11.902;2022-11-21T08:43:01;95115.09;;;2.94;100.00
2192;BME280;1102;49.718;11.902;2022-11-21T08:45:29;95121.97;;;2.99;100.00
2192;BME280;1102;49.718;11.902;2022-11-21T08:47:56;95129.66;;;2.95;100.00
2192;BME280;1102;49.718;11.902;2022-11-21T08:50:23;95127.66;;;2.92;100.00
2192;BME280;1102;49.718;11.902;2022-11-21T08:52:50;95091.25;;;2.61;100.00
2192;BME280;1102;49.718;11.902;2022-11-21T08:55:16;95123.22;;;2.84;100.00
2192;BME280;1102;49.718;11.902;2022-11-21T08:57:43;95061.75;;;2.34;100.00
2192;BME280;1102;49.718;11.902;2022-11-21T09:00:10;95127.94;;;2.73;100.00
2192;BME280;1102;49.718;11.902;2022-11-21T09:02:40;95137.31;;;2.74;100.00
2192;BME280;1102;49.718;11.902;2022-11-21T09:05:08;95117.47;;;2.47;100.00
2192;BME280;1102;49.718;11.902;2022-11-21T09:07:34;95121.47;;;2.45;100.00
2192;BME280;1102;49.718;11.902;2022-11-21T09:10:02;95152.81;;;2.71;100.00
2192;BME280;1102;49.718;11.902;2022-11-21T09:12:29;95115.31;;;2.49;100.00
2192;BME280;1102;49.718;11.902;2022-11-21T09:14:56;95072.94;;;2.18;100.00
2192;BME280;1102;49.718;11.902;2022-11-21T09:17:41;95144.34;;;2.65;100.00
2192;BME280;1102;49.718;11.902;2022-11-21T09:20:26;95135.13;;;2.50;100.00
2192;BME280;1102;49.718;11.902;2022-11-21T09:22:53;95089.94;;;2.15;100.00
2192;BME280;1102;49.718;11.902;2022-11-21T09:25:19;95107.34;;;2.46;100.00
2192;BME280;1102;49.718;11.902;2022-11-21T09:27:46;95109.66;;;2.56;100.00
2192;BME280;1102;49.718;11.902;2022-11-21T09:30:13;95151.75;;;2.80;100.00
2192;BME280;1102;49.718;11.902;2022-11-21T09:32:40;95091.66;;;2.28;100.00
2192;BME280;1102;49.718;11.902;2022-11-21T09:35:07;95114.44;;;2.62;100.00
2192;BME280;1102;49.718;11.902;2022-11-21T09:37:37;95130.72;;;2.77;100.00
2192;BME280;1102;49.718;11.902;2022-11-21T09:40:04;95140.69;;;2.92;100.00
2192;BME280;1102;49.718;11.902;2022-11-21T09:46:09;95151.31;;;3.13;100.00
2192;BME280;1102;49.718;11.902;2022-11-21T09:51:15;95137.00;;;2.93;100.00
2192;BME280;1102;49.718;11.902;2022-11-21T09:53:53;95097.06;;;2.66;100.00
2192;BME280;1102;49.718;11.902;2022-11-21T09:56:22;95158.50;;;2.90;100.00
2192;BME280;1102;49.718;11.902;2022-11-21T10:01:21;95159.44;;;2.85;100.00
2192;BME280;1102;49.718;11.902;2022-11-21T10:03:50;95167.56;;;2.92;100.00
2192;BME280;1102;49.718;11.902;2022-11-21T10:06:25;95149.91;;;2.72;100.00
2192;BME280;1102;49.718;11.902;2022-11-21T10:11:56;95169.25;;;2.71;100.00
2192;BME280;1102;49.718;11.902;2022-11-21T10:15:25;95174.72;;;2.61;100.00
2192;BME280;1102;49.718;11.902;2022-11-21T10:26:15;95167.22;;;2.59;100.00
2192;BME280;1102;49.718;11.902;2022-11-21T10:29:14;95164.00;;;2.62;100.00
2192;BME280;1102;49.718;11.902;2022-11-21T10:31:44;95127.56;;;2.40;100.00
2192;BME280;1102;49.718;11.902;2022-11-21T10:34:17;95164.97;;;2.92;100.00
2192;BME280;1102;49.718;11.902;2022-11-21T10:36:49;95167.44;;;2.97;100.00
2192;BME280;1102;49.718;11.902;2022-11-21T10:42:01;95157.31;;;3.13;100.00
2192;BME280;1102;49.718;11.902;2022-11-21T10:44:30;95146.09;;;3.04;100.00
2192;BME280;1102;49.718;11.902;2022-11-21T10:47:18;95124.28;;;2.91;100.00
2192;BME280;1102;49.718;11.902;2022-11-21T10:52:38;95106.63;;;2.71;100.00
2192;BME280;1102;49.718;11.902;2022-11-21T10:55:10;95143.63;;;2.90;100.00
2192;BME280;1102;49.718;11.902;2022-11-21T10:57:43;95139.63;;;3.02;100.00
2192;BME280;1102;49.718;11.902;2022-11-21T11:02:58;95064.09;;;2.62;100.00
2192;BME280;1102;49.718;11.902;2022-11-21T11:05:28;95128.75;;;3.00;100.00
2192;BME280;1102;49.718;11.902;2022-11-21T11:08:25;95141.19;;;3.11;100.00
2192;BME280;1102;49.718;11.902;2022-11-21T11:11:03;95141.03;;;3.25;100.00
2192;BME280;1102;49.718;11.902;2022-11-21T11:13:31;95130.88;;;3.15;100.00
2192;BME280;1102;49.718;11.902;2022-11-21T11:18:46;95130.69;;;3.54;100.00
2192;BME280;1102;49.718;11.902;2022-11-21T11:21:20;95131.19;;;3.48;100.00
2192;BME280;1102;49.718;11.902;2022-11-21T11:23:52;95105.22;;;3.34;100.00
2192;BME280;1102;49.718;11.902;2022-11-21T11:26:28;95127.44;;;3.66;100.00
2192;BME280;1102;49.718;11.902;2022-11-21T11:29:21;95121.91;;;3.68;100.00
2192;BME280;1102;49.718;11.902;2022-11-21T11:37:12;95134.41;;;4.00;100.00
2192;BME280;1102;49.718;11.902;2022-11-21T11:46:06;95110.25;;;4.03;100.00
2192;BME280;1102;49.718;11.902;2022-11-21T11:48:56;95108.13;;;3.97;100.00
2192;BME280;1102;49.718;11.902;2022-11-21T11:51:54;95136.88;;;4.35;100.00
2192;BME280;1102;49.718;11.902;2022-11-21T11:54:47;95135.91;;;4.48;100.00
2192;BME280;1102;49.718;11.902;2022-11-21T11:57:16;95084.97;;;4.16;100.00
2192;BME280;1102;49.718;11.902;2022-11-21T11:59:48;95111.94;;;4.37;100.00
2192;BME280;1102;49.718;11.902;2022-11-21T12:02:28;95131.75;;;4.47;100.00
2192;BME280;1102;49.718;11.902;2022-11-21T12:05:16;95131.16;;;4.41;100.00
2192;BME280;1102;49.718;11.902;2022-11-21T12:08:03;95136.84;;;4.43;100.00
2192;BME280;1102;49.718;11.902;2022-11-21T12:10:58;95084.31;;;4.28;100.00
2192;BME280;1102;49.718;11.902;2022-11-21T12:13:53;95134.66;;;4.54;100.00
2192;BME280;1102;49.718;11.902;2022-11-21T12:16:23;95099.03;;;4.32;100.00
2192;BME280;1102;49.718;11.902;2022-11-21T12:19:14;95122.25;;;4.63;100.00
2192;BME280;1102;49.718;11.902;2022-11-21T12:21:42;95094.78;;;4.49;100.00
2192;BME280;1102;49.718;11.902;2022-11-21T12:24:09;95105.44;;;4.43;100.00
2192;BME280;1102;49.718;11.902;2022-11-21T12:35:29;95106.69;;;4.37;100.00
2192;BME280;1102;49.718;11.902;2022-11-21T12:41:04;95105.28;;;4.40;100.00
2192;BME280;1102;49.718;11.902;2022-11-21T12:44:00;95094.25;;;4.34;100.00
2192;BME280;1102;49.718;11.902;2022-11-21T12:46:53;95071.25;;;4.19;100.00
2192;BME280;1102;49.718;11.902;2022-11-21T12:49:32;95091.69;;;4.55;100.00
2192;BME280;1102;49.718;11.902;2022-11-21T12:52:30;95076.75;;;4.56;100.00
2192;BME280;1102;49.718;11.902;2022-11-21T12:58:23;95086.84;;;4.87;100.00
2192;BME280;1102;49.718;11.902;2022-11-21T13:04:00;95097.09;;;5.13;100.00
2192;BME280;1102;49.718;11.902;2022-11-21T13:06:38;95084.94;;;5.62;100.00
2192;BME280;1102;49.718;11.902;2022-11-21T13:09:12;95085.09;;;6.63;100.00
2192;BME280;1102;49.718;11.902;2022-11-21T13:20:05;95095.03;;;5.18;100.00
2192;BME280;1102;49.718;11.902;2022-11-21T13:25:35;95079.72;;;4.66;100.00
2192;BME280;1102;49.718;11.902;2022-11-21T13:30:52;95067.81;;;4.27;100.00
2192;BME280;1102;49.718;11.902;2022-11-21T13:50:14;95083.66;;;4.01;100.00
2192;BME280;1102;49.718;11.902;2022-11-21T13:58:14;95087.13;;;3.76;100.00
2192;BME280;1102;49.718;11.902;2022-11-21T14:01:15;95094.03;;;3.80;100.00
2192;BME280;1102;49.718;11.902;2022-11-21T14:06:47;95064.31;;;3.47;100.00
2192;BME280;1102;49.718;11.902;2022-11-21T14:17:40;95074.31;;;4.21;100.00
2192;BME280;1102;49.718;11.902;2022-11-21T14:20:23;95089.09;;;5.30;100.00
2192;BME280;1102;49.718;11.902;2022-11-21T14:23:00;95090.47;;;5.48;100.00
2192;BME280;1102;49.718;11.902;2022-11-21T14:28:08;95098.13;;;6.11;100.00
2192;BME280;1102;49.718;11.902;2022-11-21T14:30:41;95049.81;;;5.42;100.00
2192;BME280;1102;49.718;11.902;2022-11-21T14:35:51;95006.78;;;5.31;100.00
2192;BME280;1102;49.718;11.902;2022-11-21T14:38:19;95086.13;;;5.64;100.00
2192;BME280;1102;49.718;11.902;2022-11-21T14:40:47;95089.31;;;5.70;100.00
2192;BME280;1102;49.718;11.902;2022-11-21T14:43:27;95087.00;;;6.02;100.00
2192;BME280;1102;49.718;11.902;2022-11-21T14:45:55;95091.63;;;5.84;100.00
2192;BME280;1102;49.718;11.902;2022-11-21T14:48:29;95082.75;;;4.77;100.00
2192;BME280;1102;49.718;11.902;2022-11-21T14:50:58;95065.72;;;4.21;100.00
2192;BME280;1102;49.718;11.902;2022-11-21T14:53:27;95072.22;;;4.14;100.00
2192;BME280;1102;49.718;11.902;2022-11-21T14:55:54;95056.00;;;3.92;100.00
2192;BME280;1102;49.718;11.902;2022-11-21T14:58:26;95057.50;;;3.63;100.00
2192;BME280;1102;49.718;11.902;2022-11-21T15:01:07;95031.47;;;3.29;100.00
2192;BME280;1102;49.718;11.902;2022-11-21T15:04:02;95031.97;;;3.22;100.00
2192;BME280;1102;49.718;11.902;2022-11-21T15:06:30;95028.69;;;3.34;100.00
2192;BME280;1102;49.718;11.902;2022-11-21T15:08:59;95027.03;;;3.29;100.00
2192;BME280;1102;49.718;11.902;2022-11-21T15:14:27;95044.84;;;3.36;100.00
2192;BME280;1102;49.718;11.902;2022-11-21T15:16:55;95027.97;;;3.16;100.00
2192;BME280;1102;49.718;11.902;2022-11-21T15:19:26;95040.22;;;3.33;100.00
2192;BME280;1102;49.718;11.902;2022-11-21T15:21:56;94999.88;;;3.04;100.00
2192;BME280;1102;49.718;11.902;2022-11-21T15:33:01;94988.59;;;2.40;100.00
2192;BME280;1102;49.718;11.902;2022-11-21T15:43:44;94962.97;;;2.24;100.00
2192;BME280;1102;49.718;11.902;2022-11-21T15:48:47;94943.81;;;2.20;100.00
2192;BME280;1102;49.718;11.902;2022-11-21T15:51:15;94924.16;;;1.97;100.00